sensor_id;sensor_type;location;lat;lon;timestamp;pressure;altitude;pressure_sealevel;temperature;humidity
62025;BME280;47978;49.118;12.146;2023-02-18T00:00:38;98147.69;;;10.57;84.95
62025;BME280;47978;49.118;12.146;2023-02-18T00:04:39;98151.00;;;10.59;84.87
62025;BME280;47978;49.118;12.146;2023-02-18T00:08:41;98144.34;;;10.60;84.82
62025;BME280;47978;49.118;12.146;2023-02-18T00:12:44;98144.06;;;10.62;84.97
62025;BME280;47978;49.118;12.146;2023-02-18T00:16:46;98144.34;;;10.60;84.82
62025;BME280;47978;49.118;12.146;2023-02-18T00:20:47;98145.75;;;10.57;85.04
62025;BME280;47978;49.118;12.146;2023-02-18T00:24:49;98133.88;;;10.57;84.64
62025;BME280;47978;49.118;12.146;2023-02-18T00:28:51;98137.69;;;10.61;84.49
62025;BME280;47978;49.118;12.146;2023-02-18T00:32:53;98136.88;;;10.61;84.39
62025;BME280;47978;49.118;12.146;2023-02-18T00:36:54;98137.97;;;10.65;84.24
62025;BME280;47978;49.118;12.146;2023-02-18T00:40:56;98137.97;;;10.65;84.03
62025;BME280;47978;49.118;12.146;2023-02-18T00:44:58;98147.91;;;10.66;84.43
62025;BME280;47978;49.118;12.146;2023-02-18T00:49:00;98144.53;;;10.69;84.15
62025;BME280;47978;49.118;12.146;2023-02-18T00:53:01;98139.06;;;10.64;84.30
62025;BME280;47978;49.118;12.146;2023-02-18T00:57:02;98147.06;;;10.65;84.38
62025;BME280;47978;49.118;12.146;2023-02-18T01:01:06;98144.06;;;10.62;84.25
62025;BME280;47978;49.118;12.146;2023-02-18T01:05:08;98146.25;;;10.65;84.17
62025;BME280;47978;49.118;12.146;2023-02-18T01:09:09;98135.44;;;10.68;83.86
62025;BME280;47978;49.118;12.146;2023-02-18T01:13:11;98146.75;;;10.67;84.01
62025;BME280;47978;49.118;12.146;2023-02-18T01:17:14;98138.47;;;10.67;84.16
62025;BME280;47978;49.118;12.146;2023-02-18T01:21:15;98137.88;;;10.70;83.91
62025;BME280;47978;49.118;12.146;2023-02-18T01:25:16;98144.31;;;10.65;84.03
62025;BME280;47978;49.118;12.146;2023-02-18T01:29:18;98138.19;;;10.68;83.81
62025;BME280;47978;49.118;12.146;2023-02-18T01:33:21;98137.06;;;10.69;83.51
62025;BME280;47978;49.118;12.146;2023-02-18T01:37:22;98140.13;;;10.68;83.47
62025;BME280;47978;49.118;12.146;2023-02-18T01:41:24;98129.66;;;10.65;83.54
62025;BME280;47978;49.118;12.146;2023-02-18T01:45:35;98124.38;;;10.68;83.53
62025;BME280;47978;49.118;12.146;2023-02-18T01:49:42;98126.31;;;10.68;83.51
62025;BME280;47978;49.118;12.146;2023-02-18T01:53:46;98123.00;;;10.66;83.25
62025;BME280;47978;49.118;12.146;2023-02-18T01:57:48;98120.50;;;10.64;83.67
62025;BME280;47978;49.118;12.146;2023-02-18T02:01:50;98121.41;;;10.60;83.92
62025;BME280;47978;49.118;12.146;2023-02-18T02:05:53;98122.19;;;10.65;83.43
62025;BME280;47978;49.118;12.146;2023-02-18T02:09:55;98114.16;;;10.64;83.59
62025;BME280;47978;49.118;12.146;2023-02-18T02:14:02;98120.00;;;10.62;84.04
62025;BME280;47978;49.118;12.146;2023-02-18T02:18:13;98118.63;;;10.60;83.89
62025;BME280;47978;49.118;12.146;2023-02-18T02:22:28;98113.94;;;10.60;83.78
62025;BME280;47978;49.118;12.146;2023-02-18T02:31:15;98110.94;;;10.56;84.54
62025;BME280;47978;49.118;12.146;2023-02-18T02:35:23;98110.63;;;10.58;84.84
62025;BME280;47978;49.118;12.146;2023-02-18T02:39:27;98112.03;;;10.55;85.00
62025;BME280;47978;49.118;12.146;2023-02-18T02:43:33;98100.16;;;10.55;85.10
62025;BME280;47978;49.118;12.146;2023-02-18T02:47:43;98096.28;;;10.56;85.50
62025;BME280;47978;49.118;12.146;2023-02-18T02:51:48;98091.06;;;10.49;85.78
62025;BME280;47978;49.118;12.146;2023-02-18T02:55:51;98080.94;;;10.40;86.50
62025;BME280;47978;49.118;12.146;2023-02-18T02:59:53;98091.19;;;10.39;85.97
62025;BME280;47978;49.118;12.146;2023-02-18T03:04:04;98085.06;;;10.42;86.51
62025;BME280;47978;49.118;12.146;2023-02-18T03:08:14;98085.06;;;10.42;86.01
62025;BME280;47978;49.118;12.146;2023-02-18T03:12:22;98084.25;;;10.42;86.08
62025;BME280;47978;49.118;12.146;2023-02-18T03:16:27;98069.88;;;10.40;86.08
62025;BME280;47978;49.118;12.146;2023-02-18T03:20:33;98078.72;;;10.42;85.72
62025;BME280;47978;49.118;12.146;2023-02-18T03:24:37;98087.84;;;10.42;85.64
62025;BME280;47978;49.118;12.146;2023-02-18T03:28:40;98082.25;;;10.47;85.31
62025;BME280;47978;49.118;12.146;2023-02-18T03:32:42;98079.19;;;10.49;85.25
62025;BME280;47978;49.118;12.146;2023-02-18T03:36:45;98075.84;;;10.52;85.19
62025;BME280;47978;49.118;12.146;2023-02-18T03:40:48;98079.72;;;10.51;85.25
62025;BME280;47978;49.118;12.146;2023-02-18T03:44:50;98072.78;;;10.53;84.88
62025;BME280;47978;49.118;12.146;2023-02-18T03:48:51;98065.31;;;10.54;85.00
62025;BME280;47978;49.118;12.146;2023-02-18T03:52:53;98071.66;;;10.54;84.66
62025;BME280;47978;49.118;12.146;2023-02-18T03:56:55;98068.63;;;10.56;84.54
62025;BME280;47978;49.118;12.146;2023-02-18T04:00:57;98078.25;;;10.58;84.41
62025;BME280;47978;49.118;12.146;2023-02-18T04:04:58;98077.44;;;10.58;84.38
62025;BME280;47978;49.118;12.146;2023-02-18T04:09:00;98079.91;;;10.60;84.47
62025;BME280;47978;49.118;12.146;2023-02-18T04:13:02;98082.97;;;10.58;84.45
62025;BME280;47978;49.118;12.146;2023-02-18T04:17:04;98095.38;;;10.61;84.49
62025;BME280;47978;49.118;12.146;2023-02-18T04:21:06;98100.38;;;10.58;84.24
62025;BME280;47978;49.118;12.146;2023-02-18T04:25:07;98099.03;;;10.56;84.81
62025;BME280;47978;49.118;12.146;2023-02-18T04:29:10;98089.38;;;10.53;85.03
62025;BME280;47978;49.118;12.146;2023-02-18T04:33:11;98085.50;;;10.54;84.94
62025;BME280;47978;49.118;12.146;2023-02-18T04:37:13;98086.63;;;10.53;85.00
62025;BME280;47978;49.118;12.146;2023-02-18T04:41:14;98085.25;;;10.51;85.01
62025;BME280;47978;49.118;12.146;2023-02-18T04:45:17;98084.38;;;10.55;84.88
62025;BME280;47978;49.118;12.146;2023-02-18T04:49:18;98087.22;;;10.50;85.32
62025;BME280;47978;49.118;12.146;2023-02-18T04:53:20;98087.22;;;10.50;85.49
62025;BME280;47978;49.118;12.146;2023-02-18T04:57:21;98088.06;;;10.46;85.82
62025;BME280;47978;49.118;12.146;2023-02-18T05:01:24;98078.94;;;10.45;85.80
62025;BME280;47978;49.118;12.146;2023-02-18T05:05:25;98088.34;;;10.44;85.95
62025;BME280;47978;49.118;12.146;2023-02-18T05:09:27;98090.28;;;10.44;85.94
62025;BME280;47978;49.118;12.146;2023-02-18T05:13:28;98082.09;;;10.33;86.09
62025;BME280;47978;49.118;12.146;2023-02-18T05:17:31;98083.16;;;10.38;86.17
62025;BME280;47978;49.118;12.146;2023-02-18T05:21:32;98080.94;;;10.40;86.00
62025;BME280;47978;49.118;12.146;2023-02-18T05:25:34;98082.81;;;10.44;86.16
62025;BME280;47978;49.118;12.146;2023-02-18T05:29:35;98080.34;;;10.43;85.83
62025;BME280;47978;49.118;12.146;2023-02-18T05:33:38;98088.34;;;10.44;85.73
62025;BME280;47978;49.118;12.146;2023-02-18T05:37:39;98086.72;;;10.43;85.69
62025;BME280;47978;49.118;12.146;2023-02-18T05:41:41;98079.81;;;10.41;85.59
62025;BME280;47978;49.118;12.146;2023-02-18T05:45:42;98090.59;;;10.42;85.61
62025;BME280;47978;49.118;12.146;2023-02-18T05:49:45;98093.63;;;10.41;85.59
62025;BME280;47978;49.118;12.146;2023-02-18T05:53:46;98078.81;;;10.31;86.01
62025;BME280;47978;49.118;12.146;2023-02-18T05:57:48;98083.16;;;10.38;86.08
62025;BME280;47978;49.118;12.146;2023-02-18T06:01:49;98078.72;;;10.42;85.76
62025;BME280;47978;49.118;12.146;2023-02-18T06:05:52;98078.75;;;10.37;86.07
62025;BME280;47978;49.118;12.146;2023-02-18T06:09:53;98080.72;;;10.36;85.76
62025;BME280;47978;49.118;12.146;2023-02-18T06:13:55;98080.72;;;10.36;85.84
62025;BME280;47978;49.118;12.146;2023-02-18T06:17:56;98082.94;;;10.34;85.79
62025;BME280;47978;49.118;12.146;2023-02-18T06:21:59;98084.56;;;10.35;86.43
62025;BME280;47978;49.118;12.146;2023-02-18T06:26:00;98086.28;;;10.31;86.95
62025;BME280;47978;49.118;12.146;2023-02-18T06:30:02;98091.53;;;10.27;87.72
62025;BME280;47978;49.118;12.146;2023-02-18T06:34:04;98091.28;;;10.19;88.09
62025;BME280;47978;49.118;12.146;2023-02-18T06:38:06;98099.06;;;10.17;88.78
62025;BME280;47978;49.118;12.146;2023-02-18T06:42:08;98094.06;;;10.19;88.40
62025;BME280;47978;49.118;12.146;2023-02-18T06:46:09;98094.38;;;10.17;88.81
62025;BME280;47978;49.118;12.146;2023-02-18T06:50:11;98098.81;;;10.13;89.16
62025;BME280;47978;49.118;12.146;2023-02-18T06:54:14;98094.94;;;10.14;89.98
62025;BME280;47978;49.118;12.146;2023-02-18T06:58:15;98091.97;;;10.05;90.88
62025;BME280;47978;49.118;12.146;2023-02-18T07:02:17;98096.47;;;9.96;91.56
62025;BME280;47978;49.118;12.146;2023-02-18T07:06:18;98090.66;;;9.93;92.11
62025;BME280;47978;49.118;12.146;2023-02-18T07:10:21;98080.22;;;9.84;92.22
62025;BME280;47978;49.118;12.146;2023-02-18T07:14:22;98081.66;;;9.82;92.25
62025;BME280;47978;49.118;12.146;2023-02-18T07:18:24;98067.78;;;9.87;92.53
62025;BME280;47978;49.118;12.146;2023-02-18T07:22:25;98072.50;;;9.86;92.71
62025;BME280;47978;49.118;12.146;2023-02-18T07:26:28;98064.78;;;9.83;93.02
62025;BME280;47978;49.118;12.146;2023-02-18T07:30:30;98054.28;;;9.85;92.62
62025;BME280;47978;49.118;12.146;2023-02-18T07:34:31;98057.34;;;9.79;93.37
62025;BME280;47978;49.118;12.146;2023-02-18T07:38:33;98044.09;;;9.81;93.21
62025;BME280;47978;49.118;12.146;2023-02-18T07:42:35;98043.25;;;9.80;92.97
62025;BME280;47978;49.118;12.146;2023-02-18T07:46:38;98041.28;;;9.86;92.88
62025;BME280;47978;49.118;12.146;2023-02-18T07:50:39;98044.88;;;9.86;92.92
62025;BME280;47978;49.118;12.146;2023-02-18T07:54:41;98044.25;;;9.95;92.54
62025;BME280;47978;49.118;12.146;2023-02-18T07:58:44;98040.91;;;9.98;92.05
62025;BME280;47978;49.118;12.146;2023-02-18T08:02:45;98033.41;;;10.03;91.78
62025;BME280;47978;49.118;12.146;2023-02-18T08:06:47;98043.06;;;10.06;91.66
62025;BME280;47978;49.118;12.146;2023-02-18T08:10:49;98043.59;;;10.08;91.17
62025;BME280;47978;49.118;12.146;2023-02-18T08:14:52;98037.56;;;10.01;90.77
62025;BME280;47978;49.118;12.146;2023-02-18T08:18:54;98045.00;;;10.05;90.60
62025;BME280;47978;49.118;12.146;2023-02-18T08:22:56;98041.13;;;10.06;89.45
62025;BME280;47978;49.118;12.146;2023-02-18T08:26:57;98029.22;;;10.11;88.83
62025;BME280;47978;49.118;12.146;2023-02-18T08:31:03;98035.78;;;10.15;88.57
62025;BME280;47978;49.118;12.146;2023-02-18T08:35:04;98033.50;;;10.27;87.56
62025;BME280;47978;49.118;12.146;2023-02-18T08:39:06;98041.06;;;10.46;85.54
62025;BME280;47978;49.118;12.146;2023-02-18T08:43:07;98027.59;;;10.63;84.23
62025;BME280;47978;49.118;12.146;2023-02-18T08:47:10;98022.63;;;10.65;84.20
62025;BME280;47978;49.118;12.146;2023-02-18T08:51:32;98018.09;;;10.74;81.74
62025;BME280;47978;49.118;12.146;2023-02-18T08:55:35;98007.78;;;10.80;81.58
62025;BME280;47978;49.118;12.146;2023-02-18T08:59:36;98005.19;;;10.89;81.29
62025;BME280;47978;49.118;12.146;2023-02-18T09:03:39;98008.91;;;11.22;79.44
62025;BME280;47978;49.118;12.146;2023-02-18T09:07:40;98001.66;;;11.45;78.80
62025;BME280;47978;49.118;12.146;2023-02-18T09:11:42;97989.28;;;11.75;78.01
62025;BME280;47978;49.118;12.146;2023-02-18T09:15:44;97971.22;;;11.97;78.35
62025;BME280;47978;49.118;12.146;2023-02-18T09:19:47;97970.22;;;12.06;76.54
62025;BME280;47978;49.118;12.146;2023-02-18T09:23:48;97980.28;;;12.02;75.65
62025;BME280;47978;49.118;12.146;2023-02-18T09:27:50;97974.28;;;11.95;74.67
62025;BME280;47978;49.118;12.146;2023-02-18T09:31:51;97971.31;;;11.91;75.58
62025;BME280;47978;49.118;12.146;2023-02-18T09:35:54;97961.41;;;12.04;73.59
62025;BME280;47978;49.118;12.146;2023-02-18T09:39:55;97956.41;;;12.20;71.90
62025;BME280;47978;49.118;12.146;2023-02-18T09:43:58;97936.50;;;12.46;70.64
62025;BME280;47978;49.118;12.146;2023-02-18T09:48:01;97930.75;;;12.70;68.33
62025;BME280;47978;49.118;12.146;2023-02-18T09:52:06;97944.22;;;12.76;67.30
62025;BME280;47978;49.118;12.146;2023-02-18T09:56:11;97937.84;;;12.76;67.81
62025;BME280;47978;49.118;12.146;2023-02-18T10:00:14;97926.59;;;12.95;67.67
62025;BME280;47978;49.118;12.146;2023-02-18T10:04:19;97924.34;;;12.83;67.94
62025;BME280;47978;49.118;12.146;2023-02-18T10:08:23;97936.31;;;12.83;67.64
62025;BME280;47978;49.118;12.146;2023-02-18T10:12:26;97940.81;;;12.93;67.75
62025;BME280;47978;49.118;12.146;2023-02-18T10:16:27;97943.97;;;13.00;67.76
62025;BME280;47978;49.118;12.146;2023-02-18T10:20:29;97934.44;;;12.93;67.67
62025;BME280;47978;49.118;12.146;2023-02-18T10:24:34;97935.06;;;12.90;67.75
62025;BME280;47978;49.118;12.146;2023-02-18T10:28:36;97932.59;;;12.88;67.63
62025;BME280;47978;49.118;12.146;2023-02-18T10:32:39;97927.03;;;12.88;68.04
62025;BME280;47978;49.118;12.146;2023-02-18T10:36:43;97912.13;;;12.84;67.70
62025;BME280;47978;49.118;12.146;2023-02-18T10:40:49;97922.13;;;12.71;67.96
62025;BME280;47978;49.118;12.146;2023-02-18T10:44:55;97902.16;;;12.69;68.17
62025;BME280;47978;49.118;12.146;2023-02-18T10:49:08;97905.38;;;12.63;68.44
62025;BME280;47978;49.118;12.146;2023-02-18T10:53:11;97910.38;;;12.74;68.20
62025;BME280;47978;49.118;12.146;2023-02-18T10:57:16;97897.44;;;12.83;67.94
62025;BME280;47978;49.118;12.146;2023-02-18T11:01:19;97902.66;;;12.85;67.97
62025;BME280;47978;49.118;12.146;2023-02-18T11:05:22;97881.53;;;12.75;67.44
62025;BME280;47978;49.118;12.146;2023-02-18T11:09:25;97872.16;;;12.71;67.43
62025;BME280;47978;49.118;12.146;2023-02-18T11:13:29;97861.47;;;12.78;66.99
62025;BME280;47978;49.118;12.146;2023-02-18T11:17:31;97862.47;;;12.96;66.66
62025;BME280;47978;49.118;12.146;2023-02-18T11:21:34;97864.44;;;13.18;66.04
62025;BME280;47978;49.118;12.146;2023-02-18T11:25:37;97853.00;;;13.20;64.64
62025;BME280;47978;49.118;12.146;2023-02-18T11:29:40;97844.69;;;13.20;64.40
62025;BME280;47978;49.118;12.146;2023-02-18T11:33:42;97836.78;;;13.13;63.42
62025;BME280;47978;49.118;12.146;2023-02-18T11:37:44;97828.13;;;13.28;63.56
62025;BME280;47978;49.118;12.146;2023-02-18T11:41:46;97813.41;;;13.28;63.36
62025;BME280;47978;49.118;12.146;2023-02-18T11:46:06;97807.56;;;13.30;63.70
62025;BME280;47978;49.118;12.146;2023-02-18T11:50:14;97803.31;;;13.32;63.14
62025;BME280;47978;49.118;12.146;2023-02-18T11:54:21;97799.22;;;13.30;63.58
62025;BME280;47978;49.118;12.146;2023-02-18T11:58:23;97784.81;;;13.27;63.58
62025;BME280;47978;49.118;12.146;2023-02-18T12:02:29;97782.56;;;13.30;63.88
62025;BME280;47978;49.118;12.146;2023-02-18T12:06:32;97791.59;;;13.35;63.46
62025;BME280;47978;49.118;12.146;2023-02-18T12:10:35;97771.25;;;13.26;62.83
62025;BME280;47978;49.118;12.146;2023-02-18T12:14:38;97773.13;;;13.17;63.47
62025;BME280;47978;49.118;12.146;2023-02-18T12:18:53;97760.56;;;13.19;63.00
62025;BME280;47978;49.118;12.146;2023-02-18T12:22:58;97773.72;;;13.27;63.18
62025;BME280;47978;49.118;12.146;2023-02-18T12:27:04;97746.69;;;13.19;62.85
62025;BME280;47978;49.118;12.146;2023-02-18T12:31:12;97749.63;;;13.23;63.23
62025;BME280;47978;49.118;12.146;2023-02-18T12:35:28;97748.94;;;13.17;63.43
62025;BME280;47978;49.118;12.146;2023-02-18T12:39:36;97739.78;;;13.17;63.47
62025;BME280;47978;49.118;12.146;2023-02-18T12:43:43;97732.78;;;13.19;62.96
62025;BME280;47978;49.118;12.146;2023-02-18T12:47:57;97744.34;;;13.13;63.36
62025;BME280;47978;49.118;12.146;2023-02-18T12:52:09;97749.84;;;13.04;63.65
62025;BME280;47978;49.118;12.146;2023-02-18T12:56:29;97736.91;;;12.99;64.17
62025;BME280;47978;49.118;12.146;2023-02-18T13:04:57;97741.31;;;13.00;64.63
62025;BME280;47978;49.118;12.146;2023-02-18T13:09:02;97737.03;;;13.17;63.83
62025;BME280;47978;49.118;12.146;2023-02-18T13:13:09;97736.09;;;13.21;63.62
62025;BME280;47978;49.118;12.146;2023-02-18T13:17:12;97732.06;;;13.27;63.42
62025;BME280;47978;49.118;12.146;2023-02-18T13:21:15;97722.09;;;13.26;63.13
62025;BME280;47978;49.118;12.146;2023-02-18T13:25:18;97742.16;;;13.23;63.75
62025;BME280;47978;49.118;12.146;2023-02-18T13:29:21;97717.06;;;13.15;63.68
62025;BME280;47978;49.118;12.146;2023-02-18T13:33:26;97712.78;;;13.09;64.25
62025;BME280;47978;49.118;12.146;2023-02-18T13:37:32;97706.75;;;13.07;63.94
62025;BME280;47978;49.118;12.146;2023-02-18T13:41:38;97714.56;;;13.04;64.25
62025;BME280;47978;49.118;12.146;2023-02-18T13:45:39;97713.00;;;13.12;63.78
62025;BME280;47978;49.118;12.146;2023-02-18T13:49:40;97701.22;;;13.07;63.74
62025;BME280;47978;49.118;12.146;2023-02-18T13:53:43;97695.16;;;13.04;63.28
62025;BME280;47978;49.118;12.146;2023-02-18T13:57:51;97707.75;;;13.11;63.41
62025;BME280;47978;49.118;12.146;2023-02-18T14:01:54;97702.72;;;13.13;62.66
62025;BME280;47978;49.118;12.146;2023-02-18T14:05:55;97723.53;;;13.24;62.67
62025;BME280;47978;49.118;12.146;2023-02-18T14:09:57;97708.69;;;13.28;61.88
62025;BME280;47978;49.118;12.146;2023-02-18T14:18:32;97694.16;;;13.32;61.33
62025;BME280;47978;49.118;12.146;2023-02-18T14:22:43;97691.38;;;13.32;61.58
62025;BME280;47978;49.118;12.146;2023-02-18T14:26:45;97684.84;;;13.27;61.69
62025;BME280;47978;49.118;12.146;2023-02-18T14:30:46;97681.56;;;13.25;62.36
62025;BME280;47978;49.118;12.146;2023-02-18T14:35:02;97687.31;;;13.29;62.46
62025;BME280;47978;49.118;12.146;2023-02-18T14:39:10;97680.53;;;13.21;62.11
62025;BME280;47978;49.118;12.146;2023-02-18T14:43:25;97684.09;;;13.13;62.21
62025;BME280;47978;49.118;12.146;2023-02-18T14:47:34;97679.13;;;13.01;62.41
62025;BME280;47978;49.118;12.146;2023-02-18T14:51:42;97680.25;;;13.00;62.47
62025;BME280;47978;49.118;12.146;2023-02-18T14:55:45;97684.34;;;13.03;62.18
62025;BME280;47978;49.118;12.146;2023-02-18T14:59:47;97678.44;;;12.96;62.45
62025;BME280;47978;49.118;12.146;2023-02-18T15:03:52;97685.31;;;12.98;62.41
62025;BME280;47978;49.118;12.146;2023-02-18T15:07:55;97688.72;;;12.95;62.22
62025;BME280;47978;49.118;12.146;2023-02-18T15:11:57;97694.97;;;12.78;63.14
62025;BME280;47978;49.118;12.146;2023-02-18T15:16:01;97691.38;;;12.78;63.35
62025;BME280;47978;49.118;12.146;2023-02-18T15:20:04;97695.22;;;12.68;63.89
62025;BME280;47978;49.118;12.146;2023-02-18T15:24:08;97706.66;;;12.67;64.71
62025;BME280;47978;49.118;12.146;2023-02-18T15:28:22;97699.78;;;12.64;65.05
62025;BME280;47978;49.118;12.146;2023-02-18T15:32:25;97700.00;;;12.54;65.55
62025;BME280;47978;49.118;12.146;2023-02-18T15:36:27;97708.75;;;12.47;66.21
62025;BME280;47978;49.118;12.146;2023-02-18T15:40:30;97707.09;;;12.46;66.78
62025;BME280;47978;49.118;12.146;2023-02-18T15:44:33;97693.69;;;12.40;67.19
62025;BME280;47978;49.118;12.146;2023-02-18T15:48:37;97697.91;;;12.37;67.20
62025;BME280;47978;49.118;12.146;2023-02-18T15:52:40;97703.97;;;12.39;67.44
62025;BME280;47978;49.118;12.146;2023-02-18T15:56:43;97713.84;;;12.31;67.93
62025;BME280;47978;49.118;12.146;2023-02-18T16:00:47;97720.00;;;12.28;68.74
62025;BME280;47978;49.118;12.146;2023-02-18T16:04:50;97739.22;;;12.25;69.14
62025;BME280;47978;49.118;12.146;2023-02-18T16:08:56;97723.31;;;12.17;69.39
62025;BME280;47978;49.118;12.146;2023-02-18T16:13:00;97733.41;;;12.12;69.92
62025;BME280;47978;49.118;12.146;2023-02-18T16:17:08;97737.28;;;12.11;70.48
62025;BME280;47978;49.118;12.146;2023-02-18T16:21:21;97739.16;;;12.02;71.44
62025;BME280;47978;49.118;12.146;2023-02-18T16:25:24;97753.63;;;11.99;72.05
62025;BME280;47978;49.118;12.146;2023-02-18T16:29:34;97751.06;;;11.89;73.33
62025;BME280;47978;49.118;12.146;2023-02-18T16:33:36;97759.31;;;11.75;74.69
62025;BME280;47978;49.118;12.146;2023-02-18T16:37:37;97774.50;;;11.64;76.27
62025;BME280;47978;49.118;12.146;2023-02-18T16:41:39;97775.34;;;11.64;76.73
62025;BME280;47978;49.118;12.146;2023-02-18T16:45:42;97773.78;;;11.58;76.91
62025;BME280;47978;49.118;12.146;2023-02-18T16:49:44;97777.16;;;11.55;77.12
62025;BME280;47978;49.118;12.146;2023-02-18T16:53:46;97781.88;;;11.55;77.11
62025;BME280;47978;49.118;12.146;2023-02-18T16:57:48;97784.97;;;11.53;77.16
62025;BME280;47978;49.118;12.146;2023-02-18T17:01:50;97790.28;;;11.49;76.74
62025;BME280;47978;49.118;12.146;2023-02-18T17:05:52;97809.97;;;11.48;77.40
62025;BME280;47978;49.118;12.146;2023-02-18T17:09:53;97809.53;;;11.41;77.99
62025;BME280;47978;49.118;12.146;2023-02-18T17:13:55;97811.69;;;11.30;78.65
62025;BME280;47978;49.118;12.146;2023-02-18T17:17:58;97825.69;;;11.20;79.89
62025;BME280;47978;49.118;12.146;2023-02-18T17:21:59;97823.53;;;11.17;80.64
62025;BME280;47978;49.118;12.146;2023-02-18T17:26:01;97825.34;;;11.08;80.78
62025;BME280;47978;49.118;12.146;2023-02-18T17:30:02;97841.69;;;11.04;81.59
62025;BME280;47978;49.118;12.146;2023-02-18T17:34:06;97849.84;;;10.95;83.69
62025;BME280;47978;49.118;12.146;2023-02-18T17:38:09;97846.66;;;10.88;84.66
62025;BME280;47978;49.118;12.146;2023-02-18T17:42:10;97860.69;;;10.73;85.25
62025;BME280;47978;49.118;12.146;2023-02-18T17:46:13;97855.75;;;10.70;85.17
62025;BME280;47978;49.118;12.146;2023-02-18T17:50:16;97863.78;;;10.71;85.53
62025;BME280;47978;49.118;12.146;2023-02-18T17:54:18;97853.00;;;10.70;85.62
62025;BME280;47978;49.118;12.146;2023-02-18T17:58:20;97849.03;;;10.57;86.78
62025;BME280;47978;49.118;12.146;2023-02-18T18:02:24;97858.81;;;10.49;87.21
62025;BME280;47978;49.118;12.146;2023-02-18T18:06:27;97857.25;;;10.43;87.49
62025;BME280;47978;49.118;12.146;2023-02-18T18:10:29;97855.06;;;10.40;87.26
62025;BME280;47978;49.118;12.146;2023-02-18T18:14:31;97862.53;;;10.40;86.33
62025;BME280;47978;49.118;12.146;2023-02-18T18:18:32;97864.50;;;10.39;86.29
62025;BME280;47978;49.118;12.146;2023-02-18T18:22:35;97867.31;;;10.34;86.46
62025;BME280;47978;49.118;12.146;2023-02-18T18:26:36;97870.41;;;10.27;87.17
62025;BME280;47978;49.118;12.146;2023-02-18T18:30:38;97873.44;;;10.31;87.13
62025;BME280;47978;49.118;12.146;2023-02-18T18:34:40;97878.16;;;10.30;87.09
62025;BME280;47978;49.118;12.146;2023-02-18T18:38:43;97880.97;;;10.20;87.61
62025;BME280;47978;49.118;12.146;2023-02-18T18:42:44;97875.19;;;10.22;88.19
62025;BME280;47978;49.118;12.146;2023-02-18T18:46:46;97883.22;;;10.18;88.10
62025;BME280;47978;49.118;12.146;2023-02-18T18:50:48;97882.16;;;10.14;88.66
62025;BME280;47978;49.118;12.146;2023-02-18T18:54:51;97876.91;;;10.12;88.58
62025;BME280;47978;49.118;12.146;2023-02-18T18:58:52;97876.41;;;10.10;88.54
62025;BME280;47978;49.118;12.146;2023-02-18T19:02:54;97860.94;;;10.09;88.28
62025;BME280;47978;49.118;12.146;2023-02-18T19:06:55;97874.78;;;10.04;88.68
62025;BME280;47978;49.118;12.146;2023-02-18T19:10:58;97879.56;;;9.99;88.37
62025;BME280;47978;49.118;12.146;2023-02-18T19:14:59;97868.81;;;9.97;87.93
62025;BME280;47978;49.118;12.146;2023-02-18T19:19:00;97876.78;;;9.99;87.32
62025;BME280;47978;49.118;12.146;2023-02-18T19:23:02;97878.50;;;9.95;87.16
62025;BME280;47978;49.118;12.146;2023-02-18T19:27:05;97885.97;;;9.94;87.41
62025;BME280;47978;49.118;12.146;2023-02-18T19:31:07;97887.16;;;9.88;87.39
62025;BME280;47978;49.118;12.146;2023-02-18T19:35:09;97891.53;;;9.89;87.25
62025;BME280;47978;49.118;12.146;2023-02-18T19:39:11;97887.81;;;9.75;88.11
62025;BME280;47978;49.118;12.146;2023-02-18T19:43:14;97891.63;;;9.79;88.04
62025;BME280;47978;49.118;12.146;2023-02-18T19:47:16;97894.16;;;9.75;88.26
62025;BME280;47978;49.118;12.146;2023-02-18T19:51:18;97892.81;;;9.73;88.10
62025;BME280;47978;49.118;12.146;2023-02-18T19:55:22;97893.34;;;9.75;88.02
62025;BME280;47978;49.118;12.146;2023-02-18T19:59:25;97898.38;;;9.67;88.23
62025;BME280;47978;49.118;12.146;2023-02-18T20:03:29;97900.34;;;9.62;88.19
62025;BME280;47978;49.118;12.146;2023-02-18T20:07:32;97900.31;;;9.67;87.76
62025;BME280;47978;49.118;12.146;2023-02-18T20:11:33;97911.06;;;9.68;87.92
62025;BME280;47978;49.118;12.146;2023-02-18T20:15:36;97912.19;;;9.67;88.00
62025;BME280;47978;49.118;12.146;2023-02-18T20:19:39;97912.75;;;9.64;87.90
62025;BME280;47978;49.118;12.146;2023-02-18T20:23:40;97911.91;;;9.69;87.57
62025;BME280;47978;49.118;12.146;2023-02-18T20:27:41;97905.84;;;9.67;87.02
62025;BME280;47978;49.118;12.146;2023-02-18T20:32:02;97908.31;;;9.68;87.06
62025;BME280;47978;49.118;12.146;2023-02-18T20:36:04;97908.09;;;9.65;87.00
62025;BME280;47978;49.118;12.146;2023-02-18T20:40:06;97903.38;;;9.65;87.05
62025;BME280;47978;49.118;12.146;2023-02-18T20:44:07;97898.47;;;9.57;87.06
62025;BME280;47978;49.118;12.146;2023-02-18T20:48:10;97899.53;;;9.61;86.33
62025;BME280;47978;49.118;12.146;2023-02-18T20:52:11;97911.38;;;9.62;86.50
62025;BME280;47978;49.118;12.146;2023-02-18T20:56:13;97903.34;;;9.71;85.81
62025;BME280;47978;49.118;12.146;2023-02-18T21:00:14;97899.22;;;9.68;85.87
62025;BME280;47978;49.118;12.146;2023-02-18T21:04:18;97905.00;;;9.66;85.53
62025;BME280;47978;49.118;12.146;2023-02-18T21:08:19;97899.59;;;9.56;85.33
62025;BME280;47978;49.118;12.146;2023-02-18T21:12:21;97896.25;;;9.59;85.20
62025;BME280;47978;49.118;12.146;2023-02-18T21:16:23;97901.78;;;9.59;85.37
62025;BME280;47978;49.118;12.146;2023-02-18T21:20:26;97905.41;;;9.55;85.36
62025;BME280;47978;49.118;12.146;2023-02-18T21:24:27;97912.50;;;9.61;84.82
62025;BME280;47978;49.118;12.146;2023-02-18T21:28:28;97913.53;;;9.70;84.44